Time;durP1;ratioP1;P1;durP2;ratioP2;P2;SDS_P1;SDS_P2;PMS_P1;PMS_P2;Temp;Humidity;BMP_temperature;BMP_pressure;BME280_temperature;BME280_humidity;BME280_pressure;Samples;Min_cycle;Max_cycle;Signal;HPM_P1;HPM_P2
2023/09/11 00:01:53;;;;;;;4.20;1.80;;;;;;;20.60;65.48;99866.31;5093589;28;20195;-67
2023/09/11 00:04:21;;;;;;;4.00;1.50;;;;;;;20.44;65.36;99861.81;5094637;28;20264;-68
2023/09/11 00:06:48;;;;;;;1.80;1.37;;;;;;;20.22;66.07;99853.69;5092480;28;20206;-67
2023/09/11 00:09:16;;;;;;;6.43;2.07;;;;;;;20.18;66.68;99865.25;5093154;28;20187;-68
2023/09/11 00:11:42;;;;;;;3.50;1.77;;;;;;;20.10;66.99;99855.69;5094500;28;20195;-68
2023/09/11 00:14:09;;;;;;;7.77;2.00;;;;;;;20.05;67.40;99863.66;5094416;28;20199;-69
2023/09/11 00:16:36;;;;;;;2.83;1.90;;;;;;;20.00;67.85;99860.06;5092595;28;20245;-68
2023/09/11 00:19:03;;;;;;;5.13;1.57;;;;;;;19.92;68.50;99853.25;5094464;28;20234;-68
2023/09/11 00:21:30;;;;;;;4.43;2.33;;;;;;;19.95;68.09;99852.75;5094173;28;20585;-68
2023/09/11 00:23:57;;;;;;;2.00;1.90;;;;;;;19.97;68.75;99856.00;5094593;28;20223;-68
2023/09/11 00:26:25;;;;;;;1.50;1.40;;;;;;;19.93;68.78;99846.78;5092823;28;20199;-68
2023/09/11 00:28:51;;;;;;;4.23;1.63;;;;;;;19.90;67.92;99854.56;5076147;28;20195;-67
2023/09/11 00:31:19;;;;;;;6.00;2.00;;;;;;;19.75;68.41;99851.63;5074267;28;20192;-67
2023/09/11 00:33:45;;;;;;;1.90;1.33;;;;;;;19.53;69.10;99859.63;5074134;28;20192;-67
2023/09/11 00:36:12;;;;;;;4.33;1.73;;;;;;;19.41;70.33;99855.38;5074181;28;20192;-68
2023/09/11 00:38:39;;;;;;;10.20;2.87;;;;;;;19.38;70.00;99861.25;5074214;28;20200;-67
2023/09/11 00:41:05;;;;;;;4.63;2.07;;;;;;;19.35;70.08;99862.56;5093876;28;20223;-67
2023/09/11 00:43:33;;;;;;;3.37;1.70;;;;;;;19.29;70.20;99852.78;5094222;28;20218;-68
2023/09/11 00:46:01;;;;;;;1.60;1.50;;;;;;;19.22;71.26;99859.31;5093886;28;20659;-67
2023/09/11 00:48:29;;;;;;;3.23;1.80;;;;;;;19.25;70.20;99856.19;5093848;28;20743;-67
2023/09/11 00:50:57;;;;;;;2.33;2.13;;;;;;;19.26;70.81;99849.72;5089651;28;20688;-67
2023/09/11 00:53:24;;;;;;;3.67;1.73;;;;;;;19.20;71.41;99853.38;5073748;28;20196;-67
2023/09/11 00:55:50;;;;;;;1.67;1.57;;;;;;;19.26;70.59;99847.88;5074016;28;20196;-67
2023/09/11 00:58:17;;;;;;;4.73;2.30;;;;;;;19.32;70.68;99852.25;5073443;28;20512;-67
2023/09/11 01:00:46;;;;;;;4.13;1.70;;;;;;;19.35;70.48;99845.56;5073496;28;20637;-67
2023/09/11 01:03:14;;;;;;;6.47;2.03;;;;;;;19.39;70.18;99850.25;5076257;28;20217;-68
2023/09/11 01:05:42;;;;;;;4.33;1.97;;;;;;;19.41;70.26;99850.00;5091963;28;20301;-68
2023/09/11 01:08:09;;;;;;;2.47;1.87;;;;;;;19.42;70.48;99851.63;5081813;28;20246;-67
2023/09/11 01:10:36;;;;;;;4.03;2.07;;;;;;;19.47;70.63;99844.44;5073193;28;20190;-67
2023/09/11 01:13:04;;;;;;;2.67;1.83;;;;;;;19.56;70.13;99847.56;5073188;28;20264;-67
2023/09/11 01:15:38;;;;;;;3.33;1.80;;;;;;;19.62;69.95;99846.56;5081817;28;20675;-67
2023/09/11 01:18:14;;;;;;;3.93;1.90;;;;;;;19.65;69.95;99840.69;5093082;28;20592;-67
2023/09/11 01:20:59;;;;;;;5.60;1.80;;;;;;;19.62;70.02;99835.78;5093654;28;20213;-67
2023/09/11 01:23:59;;;;;;;3.80;1.83;;;;;;;19.55;70.58;99837.81;5093516;28;20207;-67
2023/09/11 01:26:52;;;;;;;4.73;1.53;;;;;;;19.45;70.52;99841.16;5073245;28;20237;-67
2023/09/11 01:29:24;;;;;;;1.63;1.53;;;;;;;19.30;70.97;99838.22;5060535;28;20208;-67
2023/09/11 01:31:51;;;;;;;4.00;2.00;;;;;;;19.18;71.85;99834.75;5072935;28;20656;-67
2023/09/11 01:34:17;;;;;;;2.27;1.60;;;;;;;19.25;71.77;99831.94;5072952;28;20253;-67
2023/09/11 01:36:44;;;;;;;2.00;1.80;;;;;;;19.33;71.75;99831.53;5073007;28;20195;-67
2023/09/11 01:39:11;;;;;;;3.60;2.00;;;;;;;19.20;71.48;99821.06;5074972;28;20187;-67
2023/09/11 01:41:41;;;;;;;3.37;1.70;;;;;;;19.03;72.00;99821.03;5093462;28;20234;-67
2023/09/11 01:44:14;;;;;;;1.47;1.33;;;;;;;18.77;73.20;99820.81;5092676;28;20519;-67
2023/09/11 01:46:43;;;;;;;4.23;2.00;;;;;;;18.61;73.82;99826.94;5092913;28;20723;-66
2023/09/11 01:49:11;;;;;;;6.47;1.70;;;;;;;18.48;74.36;99822.69;5092915;28;20276;-68
2023/09/11 01:51:39;;;;;;;7.57;1.93;;;;;;;18.41;74.75;99821.97;5091441;28;20186;-67
2023/09/11 01:54:07;;;;;;;5.27;2.00;;;;;;;18.28;75.46;99826.78;5072319;28;20282;-67
2023/09/11 01:56:34;;;;;;;4.40;1.80;;;;;;;18.27;75.94;99825.16;5072576;28;20195;-67
2023/09/11 01:59:00;;;;;;;2.93;2.10;;;;;;;18.10;76.31;99824.25;5072225;28;20245;-67
2023/09/11 02:01:27;;;;;;;3.13;1.70;;;;;;;17.97;77.02;99825.31;5072224;28;20259;-68
2023/09/11 02:03:55;;;;;;;4.03;2.10;;;;;;;17.98;76.98;99810.84;5079948;28;20201;-67
2023/09/11 02:06:22;;;;;;;4.60;1.80;;;;;;;17.93;77.48;99810.69;5092684;28;20281;-67
2023/09/11 02:08:48;;;;;;;2.40;1.90;;;;;;;17.88;77.68;99815.19;5075035;28;20267;-67
2023/09/11 02:11:15;;;;;;;5.20;2.00;;;;;;;17.87;78.01;99814.34;5072398;28;20192;-68
2023/09/11 02:13:42;;;;;;;3.77;1.93;;;;;;;17.85;78.14;99815.63;5072326;28;20193;-67
2023/09/11 02:16:08;;;;;;;7.50;2.10;;;;;;;17.82;78.25;99816.09;5080906;28;20256;-67
2023/09/11 02:18:35;;;;;;;3.07;1.77;;;;;;;17.78;78.29;99815.75;5090488;28;20734;-67
2023/09/11 02:21:03;;;;;;;8.63;1.97;;;;;;;17.70;78.77;99807.22;5092579;28;20199;-67
2023/09/11 02:23:30;;;;;;;2.00;1.63;;;;;;;17.61;79.52;99803.25;5091442;28;20738;-67
2023/09/11 02:25:56;;;;;;;2.93;2.30;;;;;;;17.62;79.25;99804.88;5092119;28;20214;-67
2023/09/11 02:28:23;;;;;;;2.37;1.90;;;;;;;17.51;79.79;99800.34;5082049;28;20621;-67
2023/09/11 02:30:50;;;;;;;6.73;2.50;;;;;;;17.39;79.98;99794.13;5092402;28;20217;-67
2023/09/11 02:33:17;;;;;;;3.60;2.00;;;;;;;17.26;80.72;99802.38;5092215;28;20188;-68
2023/09/11 02:35:43;;;;;;;2.10;2.00;;;;;;;17.15;81.15;99809.34;5092439;28;20198;-67
2023/09/11 02:38:12;;;;;;;8.07;2.40;;;;;;;17.13;82.94;99794.53;5092266;28;20195;-67
2023/09/11 02:40:39;;;;;;;3.67;2.10;;;;;;;17.17;81.98;99795.69;5086929;28;20211;-67
2023/09/11 02:43:07;;;;;;;5.90;1.90;;;;;;;17.20;81.67;99795.25;5091920;28;20244;-67
2023/09/11 02:45:34;;;;;;;7.23;2.70;;;;;;;17.07;82.08;99795.47;5091977;28;20393;-68
2023/09/11 02:48:00;;;;;;;1.83;1.73;;;;;;;17.30;82.60;99798.16;5091751;28;20199;-67
2023/09/11 02:50:27;;;;;;;4.50;2.07;;;;;;;17.56;81.43;99798.56;5091703;28;20202;-67
2023/09/11 02:52:54;;;;;;;9.23;2.50;;;;;;;17.80;79.80;99799.41;5090260;28;20268;-67
2023/09/11 02:55:22;;;;;;;7.93;2.00;;;;;;;17.77;80.20;99792.59;5091959;28;20579;-67
2023/09/11 02:57:48;;;;;;;4.00;2.30;;;;;;;17.78;79.28;99791.56;5092001;28;20249;-67
2023/09/11 03:00:15;;;;;;;7.03;2.43;;;;;;;17.80;79.08;99785.97;5091908;28;20193;-68
2023/09/11 03:02:42;;;;;;;7.00;2.50;;;;;;;17.70;79.10;99793.78;5088596;28;20252;-67
2023/09/11 03:05:09;;;;;;;3.57;2.63;;;;;;;17.75;79.17;99804.63;5071275;28;20222;-67
2023/09/11 03:07:35;;;;;;;3.40;2.00;;;;;;;17.72;79.01;99800.56;5078868;28;20192;-67
2023/09/11 03:10:03;;;;;;;6.53;2.60;;;;;;;17.65;79.33;99799.88;5091961;28;20245;-67
2023/09/11 03:12:31;;;;;;;5.30;2.40;;;;;;;17.66;79.56;99798.00;5090427;28;20271;-67
2023/09/11 03:15:03;;;;;;;3.33;2.00;;;;;;;17.77;79.17;99791.81;5091061;28;20196;-67
2023/09/11 03:17:30;;;;;;;5.77;2.50;;;;;;;17.96;78.95;99796.81;5091891;28;20180;-67
2023/09/11 03:19:56;;;;;;;3.57;2.17;;;;;;;18.13;78.01;99794.22;5091699;28;20253;-67
2023/09/11 03:22:23;;;;;;;8.43;2.67;;;;;;;18.25;76.98;99795.00;5081338;28;20188;-67
2023/09/11 03:24:50;;;;;;;4.53;2.30;;;;;;;18.37;76.77;99793.09;5088978;28;20291;-66
2023/09/11 03:27:17;;;;;;;5.60;2.37;;;;;;;18.45;76.30;99795.41;5091727;28;20191;-67
2023/09/11 03:29:45;;;;;;;18.80;2.67;;;;;;;18.55;75.94;99798.31;5091626;28;20223;-66
2023/09/11 03:32:11;;;;;;;5.73;2.60;;;;;;;18.67;75.09;99796.41;5091673;28;20198;-66
2023/09/11 03:34:38;;;;;;;7.70;2.20;;;;;;;18.74;74.72;99797.88;5090975;28;20669;-66
2023/09/11 03:37:05;;;;;;;6.60;2.13;;;;;;;18.84;74.43;99806.16;5095285;28;20259;-66
2023/09/11 03:39:31;;;;;;;2.73;2.53;;;;;;;18.89;74.05;99805.41;5095447;28;20254;-66
2023/09/11 03:41:58;;;;;;;5.10;2.83;;;;;;;18.92;75.67;99792.31;5093659;28;20287;-66
2023/09/11 03:44:25;;;;;;;5.03;2.30;;;;;;;18.78;73.84;99795.53;5094244;28;20187;-67
2023/09/11 03:46:53;;;;;;;7.77;2.27;;;;;;;18.68;74.87;99806.09;5095567;28;20223;-67
2023/09/11 03:49:20;;;;;;;6.80;2.50;;;;;;;18.69;75.22;99792.41;5094919;28;20286;-67
2023/09/11 03:51:46;;;;;;;10.53;2.80;;;;;;;18.74;74.82;99805.16;5093566;28;20192;-67
2023/09/11 03:54:13;;;;;;;2.87;2.67;;;;;;;18.76;74.77;99798.47;5077877;28;20214;-67
2023/09/11 03:56:40;;;;;;;5.23;2.30;;;;;;;18.81;74.22;99801.25;5074709;28;20249;-67
2023/09/11 03:59:06;;;;;;;7.27;2.60;;;;;;;18.74;74.52;99797.06;5074995;28;20196;-66
2023/09/11 04:01:33;;;;;;;9.57;2.60;;;;;;;18.60;75.65;99799.25;5074535;28;20233;-66
2023/09/11 04:04:01;;;;;;;9.80;3.23;;;;;;;18.60;75.35;99803.78;5076961;28;20251;-66
2023/09/11 04:06:28;;;;;;;7.07;2.67;;;;;;;18.64;75.20;99799.56;5094868;28;20230;-66
2023/09/11 04:08:54;;;;;;;18.73;3.13;;;;;;;18.73;74.90;99803.50;5076627;28;20195;-66
2023/09/11 04:11:22;;;;;;;4.13;2.70;;;;;;;18.78;74.53;99800.94;5074572;28;20258;-67
2023/09/11 04:13:49;;;;;;;10.27;2.93;;;;;;;18.90;74.16;99796.28;5074444;28;20227;-67
2023/09/11 04:16:16;;;;;;;14.53;2.87;;;;;;;19.01;74.48;99801.63;5079783;28;20197;-63
2023/09/11 04:18:43;;;;;;;4.07;2.07;;;;;;;19.70;78.48;99789.53;5095015;28;20278;-64
2023/09/11 04:21:11;;;;;;;3.90;2.00;;;;;;;20.39;74.99;99792.38;5094776;28;20233;-64
2023/09/11 04:23:37;;;;;;;3.50;2.03;;;;;;;21.21;70.50;99809.22;5094496;28;20190;-63
2023/09/11 04:26:06;;;;;;;5.33;2.30;;;;;;;22.19;66.47;99814.78;5094522;28;20219;-63
2023/09/11 04:28:33;;;;;;;8.23;2.60;;;;;;;22.82;60.52;99838.88;5089586;28;20207;-64
2023/09/11 04:31:00;;;;;;;6.97;2.30;;;;;;;23.36;58.37;99834.66;5086273;28;20188;-63
2023/09/11 04:33:27;;;;;;;3.33;2.40;;;;;;;23.95;57.67;99838.44;5094144;28;20189;-63
2023/09/11 04:35:54;;;;;;;3.63;2.43;;;;;;;24.38;53.20;99848.63;5094858;28;20209;-63
2023/09/11 04:38:22;;;;;;;6.17;2.67;;;;;;;25.02;53.35;99861.44;5094082;28;20216;-65
2023/09/11 04:40:48;;;;;;;8.40;2.97;;;;;;;25.42;50.11;99858.44;5092591;28;20223;-64
2023/09/11 04:43:15;;;;;;;3.23;2.60;;;;;;;25.46;49.09;99835.03;5094283;28;20260;-62
2023/09/11 04:45:42;;;;;;;6.57;2.87;;;;;;;25.40;48.70;99838.88;5093603;28;20219;-61
2023/09/11 04:48:08;;;;;;;3.10;2.80;;;;;;;25.60;50.49;99838.72;5093201;28;20240;-61
2023/09/11 04:50:35;;;;;;;13.50;3.23;;;;;;;26.10;48.41;99841.81;5093594;28;20196;-61
2023/09/11 04:53:02;;;;;;;5.50;3.10;;;;;;;26.20;46.33;99838.97;5087713;28;20191;-61
2023/09/11 04:55:30;;;;;;;5.43;3.10;;;;;;;25.85;46.29;99843.94;5086092;28;20440;-62
2023/09/11 04:57:57;;;;;;;7.53;2.73;;;;;;;25.74;46.69;99840.50;5094196;28;20237;-61
2023/09/11 05:00:23;;;;;;;6.07;3.37;;;;;;;25.71;47.71;99842.97;5093948;28;20187;-62
2023/09/11 05:02:50;;;;;;;2.80;2.60;;;;;;;25.68;47.51;99840.84;5093687;28;20192;-61
2023/09/11 05:05:17;;;;;;;8.80;3.10;;;;;;;25.98;45.28;99841.38;5091003;28;20192;-62
2023/09/11 05:07:44;;;;;;;8.10;2.97;;;;;;;26.27;46.73;99844.88;5085022;28;20724;-61
2023/09/11 05:10:14;;;;;;;3.60;3.30;;;;;;;26.81;43.97;99841.78;5073166;28;20242;-62
2023/09/11 05:12:42;;;;;;;6.67;3.17;;;;;;;26.40;44.41;99843.34;5073234;28;20200;-62
2023/09/11 05:15:09;;;;;;;9.17;3.17;;;;;;;26.34;46.29;99842.59;5076972;28;20732;-61
2023/09/11 05:17:36;;;;;;;11.17;3.10;;;;;;;26.96;43.39;99839.66;5086604;28;20314;-61
2023/09/11 05:20:04;;;;;;;7.40;3.20;;;;;;;26.91;43.53;99838.91;5072642;28;20199;-62
2023/09/11 05:22:30;;;;;;;10.57;3.00;;;;;;;27.37;43.16;99842.63;5077404;28;20192;-62
2023/09/11 05:24:57;;;;;;;8.97;2.70;;;;;;;27.39;41.97;99843.94;5075069;28;20242;-65
2023/09/11 05:27:24;;;;;;;6.83;2.53;;;;;;;27.05;42.78;99845.25;5078010;28;20273;-62
2023/09/11 05:29:53;;;;;;;5.30;2.97;;;;;;;26.88;44.33;99834.03;5073910;28;20667;-69
2023/09/11 05:32:20;;;;;;;5.17;2.53;;;;;;;27.81;42.00;99835.59;5080977;28;20192;-70
2023/09/11 05:34:46;;;;;;;8.27;3.60;;;;;;;28.42;39.18;99838.03;5085535;28;20241;-65
2023/09/11 05:37:13;;;;;;;6.73;2.63;;;;;;;27.83;40.19;99835.31;5085867;28;20199;-68
2023/09/11 05:39:40;;;;;;;6.47;2.33;;;;;;;27.49;42.58;99832.03;5078345;28;20247;-73
2023/09/11 05:42:07;;;;;;;9.50;3.30;;;;;;;27.27;42.12;99835.38;5075489;28;20634;-69
2023/09/11 05:44:33;;;;;;;5.47;2.97;;;;;;;26.77;44.13;99827.09;5071283;28;20188;-63
2023/09/11 05:47:01;;;;;;;4.53;3.27;;;;;;;26.36;44.66;99831.41;5087035;28;20231;-73
2023/09/11 05:49:29;;;;;;;15.13;3.17;;;;;;;25.97;46.22;99823.41;5088204;28;20195;-64
2023/09/11 05:51:56;;;;;;;5.37;3.27;;;;;;;26.21;45.49;99834.34;5089269;28;20238;-66
2023/09/11 05:54:23;;;;;;;5.57;2.93;;;;;;;26.19;45.48;99826.44;5087703;28;20576;-63
2023/09/11 05:56:50;;;;;;;3.80;3.07;;;;;;;26.03;45.67;99826.88;5091114;28;20264;-71
2023/09/11 05:59:19;;;;;;;9.47;3.57;;;;;;;26.24;46.27;99828.28;5087170;28;20220;-70
2023/09/11 06:01:46;;;;;;;6.10;2.77;;;;;;;26.64;45.20;99822.38;5087840;28;20227;-64
2023/09/11 06:04:14;;;;;;;6.23;3.20;;;;;;;26.68;44.31;99824.25;5090377;28;20207;-64
2023/09/11 06:06:41;;;;;;;4.40;2.60;;;;;;;26.67;43.46;99821.81;5086918;28;20215;-64
2023/09/11 06:09:09;;;;;;;4.13;2.63;;;;;;;27.13;43.84;99820.84;5082453;28;20187;-64
2023/09/11 06:11:35;;;;;;;5.57;2.70;;;;;;;27.16;42.86;99831.16;5091833;28;20286;-64
2023/09/11 06:14:02;;;;;;;6.77;2.43;;;;;;;26.79;43.52;99824.91;5090780;28;20574;-64
2023/09/11 06:16:29;;;;;;;7.17;3.00;;;;;;;26.78;43.88;99826.03;5091583;28;20210;-64
2023/09/11 06:18:55;;;;;;;2.37;2.17;;;;;;;27.38;43.12;99834.13;5074851;28;20694;-64
2023/09/11 06:21:24;;;;;;;4.97;2.80;;;;;;;27.79;41.82;99828.78;5073018;28;20192;-64
2023/09/11 06:23:50;;;;;;;3.37;2.13;;;;;;;28.50;39.93;99832.66;5085276;28;20260;-68
2023/09/11 06:26:17;;;;;;;3.40;2.70;;;;;;;28.92;38.62;99842.41;5071462;28;20360;-64
2023/09/11 06:28:44;;;;;;;8.67;2.50;;;;;;;28.65;39.16;99837.81;5074213;28;20241;-64
2023/09/11 06:31:11;;;;;;;4.37;2.10;;;;;;;28.75;39.41;99848.50;5074934;28;20790;-64
2023/09/11 06:33:38;;;;;;;5.70;2.10;;;;;;;29.28;38.39;99846.00;5085002;28;20191;-64
2023/09/11 06:36:05;;;;;;;4.00;2.17;;;;;;;29.36;37.96;99841.69;5091284;28;20261;-65
2023/09/11 06:38:33;;;;;;;138.27;10.00;;;;;;;29.64;36.84;99841.28;5085099;28;20261;-64
2023/09/11 06:41:00;;;;;;;12.50;2.70;;;;;;;29.96;36.48;99835.50;5079407;28;20227;-64
2023/09/11 06:43:26;;;;;;;4.33;2.10;;;;;;;30.15;36.80;99838.03;5069044;28;20253;-65
2023/09/11 06:45:53;;;;;;;7.07;2.23;;;;;;;29.56;37.10;99828.31;5086345;28;20190;-67
2023/09/11 06:48:20;;;;;;;10.77;2.47;;;;;;;29.37;37.88;99822.22;5089140;28;20256;-68
2023/09/11 06:50:47;;;;;;;6.30;2.70;;;;;;;29.44;37.84;99814.41;5089504;28;20615;-64
2023/09/11 06:53:14;;;;;;;6.43;2.27;;;;;;;29.79;37.58;99827.19;5088620;28;20597;-64
2023/09/11 06:55:45;;;;;;;6.07;2.00;;;;;;;29.80;36.95;99823.34;5076839;28;20283;-64
2023/09/11 06:58:12;;;;;;;4.23;2.30;;;;;;;29.51;37.79;99817.47;5087492;28;20563;-71
2023/09/11 07:00:39;;;;;;;10.33;2.80;;;;;;;29.99;37.17;99829.41;5089445;28;20278;-66
2023/09/11 07:03:06;;;;;;;4.13;2.10;;;;;;;30.20;36.62;99825.00;5085419;28;20223;-65
2023/09/11 07:05:34;;;;;;;11.33;2.60;;;;;;;30.51;36.14;99836.75;5081072;28;20191;-63
2023/09/11 07:08:01;;;;;;;6.43;2.43;;;;;;;30.77;35.09;99829.41;5085634;28;20215;-65
2023/09/11 07:10:27;;;;;;;5.60;2.23;;;;;;;30.99;35.02;99832.00;5092697;28;20195;-65
2023/09/11 07:12:55;;;;;;;3.23;1.77;;;;;;;30.89;34.44;99832.31;5091156;28;20245;-63
2023/09/11 07:15:22;;;;;;;5.00;1.90;;;;;;;31.10;33.93;99829.75;5079203;28;20498;-65
2023/09/11 07:17:51;;;;;;;4.37;1.90;;;;;;;31.08;34.29;99830.09;5092682;28;20280;-61
2023/09/11 07:20:18;;;;;;;2.50;1.70;;;;;;;30.68;34.88;99825.81;5078780;28;20191;-64
2023/09/11 07:22:44;;;;;;;7.10;1.90;;;;;;;30.58;35.60;99823.34;5093312;28;20277;-68
2023/09/11 07:25:14;;;;;;;4.20;1.77;;;;;;;30.61;34.99;99830.13;5094412;28;20678;-61
2023/09/11 07:27:41;;;;;;;2.40;1.60;;;;;;;30.77;34.80;99826.66;5093906;28;20694;-64
2023/09/11 07:30:10;;;;;;;3.97;2.13;;;;;;;30.97;34.63;99828.78;5094541;28;20184;-63
2023/09/11 07:32:36;;;;;;;10.80;2.37;;;;;;;30.96;34.74;99832.66;5086931;28;20195;-63
2023/09/11 07:35:04;;;;;;;13.20;2.50;;;;;;;31.11;34.33;99834.13;5094788;28;20195;-63
2023/09/11 07:37:31;;;;;;;9.17;1.80;;;;;;;31.21;34.84;99834.63;5083844;28;20195;-63
2023/09/11 07:39:57;;;;;;;4.07;2.10;;;;;;;31.06;34.99;99832.34;5086423;28;20279;-64
2023/09/11 07:42:24;;;;;;;5.00;2.43;;;;;;;30.69;34.77;99830.19;5084973;28;20186;-64
2023/09/11 07:44:51;;;;;;;4.63;2.20;;;;;;;30.19;35.69;99828.88;5092868;28;20195;-65
2023/09/11 07:47:20;;;;;;;7.17;2.90;;;;;;;30.04;36.20;99834.75;5089160;28;20885;-64
2023/09/11 07:49:47;;;;;;;8.83;2.40;;;;;;;29.97;35.82;99826.16;5073923;28;20227;-64
2023/09/11 07:52:15;;;;;;;2.23;2.03;;;;;;;30.11;35.72;99829.63;5084933;28;20273;-65
2023/09/11 07:54:42;;;;;;;5.20;1.80;;;;;;;30.25;35.56;99826.81;5080676;28;20205;-64
2023/09/11 07:57:08;;;;;;;4.87;2.27;;;;;;;30.10;35.65;99819.78;5092815;28;20658;-66
2023/09/11 07:59:35;;;;;;;10.50;2.43;;;;;;;29.86;35.72;99818.53;5091531;28;20548;-70
2023/09/11 08:02:02;;;;;;;14.63;3.10;;;;;;;30.07;36.22;99814.94;5093180;28;20195;-64
2023/09/11 08:04:30;;;;;;;6.30;1.97;;;;;;;30.43;35.85;99818.34;5078005;28;20227;-65
2023/09/11 08:06:57;;;;;;;5.83;2.20;;;;;;;30.56;34.44;99814.66;5077450;28;20669;-71
2023/09/11 08:09:23;;;;;;;4.87;2.10;;;;;;;30.72;34.59;99815.84;5083773;28;20256;-66
2023/09/11 08:11:50;;;;;;;8.40;2.77;;;;;;;30.92;34.10;99815.22;5084698;28;20621;-64
2023/09/11 08:14:17;;;;;;;5.67;1.87;;;;;;;30.64;34.08;99808.38;5086970;28;20195;-64
2023/09/11 08:16:44;;;;;;;7.40;2.40;;;;;;;30.77;33.38;99812.94;5087609;28;20652;-65
2023/09/11 08:19:10;;;;;;;3.90;2.23;;;;;;;31.06;34.50;99807.63;5079505;28;20279;-65
2023/09/11 08:21:40;;;;;;;3.43;2.40;;;;;;;31.16;32.60;99810.06;5091110;28;20224;-65
2023/09/11 08:24:07;;;;;;;8.27;3.00;;;;;;;31.09;32.30;99804.25;5084560;28;20192;-70
2023/09/11 08:26:33;;;;;;;7.37;3.17;;;;;;;31.18;32.80;99796.81;5077829;28;20639;-66
2023/09/11 08:29:02;;;;;;;16.13;2.67;;;;;;;31.39;32.03;99797.78;5081021;28;20231;-65
2023/09/11 08:31:29;;;;;;;5.43;2.20;;;;;;;31.53;32.79;99790.19;5080161;28;20735;-71
2023/09/11 08:33:56;;;;;;;4.20;2.37;;;;;;;31.60;30.38;99800.69;5092007;28;20256;-64
2023/09/11 08:36:23;;;;;;;3.07;2.20;;;;;;;31.50;30.25;99798.25;5091738;28;20191;-69
2023/09/11 08:38:51;;;;;;;2.40;2.20;;;;;;;31.70;30.98;99792.06;5089448;28;20225;-64
2023/09/11 08:41:19;;;;;;;16.90;2.60;;;;;;;31.84;29.93;99790.78;5091301;28;20304;-67
2023/09/11 08:43:46;;;;;;;2.93;2.20;;;;;;;31.97;28.54;99787.00;5090875;28;20201;-66
2023/09/11 08:46:15;;;;;;;7.30;2.60;;;;;;;31.98;27.71;99787.81;5089933;28;20667;-64
2023/09/11 08:48:45;;;;;;;5.43;2.03;;;;;;;32.08;28.08;99781.94;5092369;28;20191;-65
2023/09/11 08:51:17;;;;;;;2.87;1.97;;;;;;;32.06;26.69;99785.00;5093189;28;20289;-64
2023/09/11 08:53:46;;;;;;;2.20;1.70;;;;;;;31.95;25.54;99789.28;5091781;28;20210;-66
2023/09/11 08:56:14;;;;;;;8.33;1.90;;;;;;;31.94;26.11;99782.19;5092617;28;20728;-64
2023/09/11 08:58:42;;;;;;;4.13;1.90;;;;;;;31.91;25.27;99784.75;5091929;28;20191;-70
2023/09/11 09:01:09;;;;;;;3.20;1.60;;;;;;;31.77;23.49;99782.22;5091553;28;20751;-64
2023/09/11 09:03:38;;;;;;;1.70;1.30;;;;;;;31.72;24.35;99774.13;5072929;28;20257;-64
2023/09/11 09:06:06;;;;;;;4.00;1.93;;;;;;;31.78;24.45;99777.53;5070969;28;20227;-64
2023/09/11 09:08:34;;;;;;;2.90;1.73;;;;;;;31.82;24.29;99773.81;5082783;28;20231;-70
2023/09/11 09:11:01;;;;;;;2.33;1.73;;;;;;;31.66;25.49;99769.94;5091282;28;20296;-64
2023/09/11 09:13:34;;;;;;;5.07;2.00;;;;;;;31.46;25.23;99776.16;5090162;28;20199;-65
2023/09/11 09:16:02;;;;;;;2.33;1.80;;;;;;;31.63;25.47;99764.28;5090527;28;20267;-64
2023/09/11 09:18:29;;;;;;;4.77;2.20;;;;;;;31.59;25.68;99761.41;5081797;28;20234;-64
2023/09/11 09:20:56;;;;;;;3.27;2.17;;;;;;;31.50;25.30;99766.13;5107749;28;20255;-65
2023/09/11 09:23:32;;;;;;;4.43;2.17;;;;;;;31.36;25.81;99768.22;5112491;28;20197;-64
2023/09/11 09:26:06;;;;;;;4.97;2.00;;;;;;;30.99;25.55;99760.66;5095606;28;20191;-69
2023/09/11 09:28:35;;;;;;;3.90;2.27;;;;;;;31.00;26.13;99759.53;5090270;28;20258;-64
2023/09/11 09:31:02;;;;;;;3.60;1.80;;;;;;;31.41;26.29;99750.78;5090308;28;20252;-66
2023/09/11 09:33:30;;;;;;;4.37;1.70;;;;;;;31.45;24.88;99752.56;5091143;28;20199;-64
2023/09/11 09:35:57;;;;;;;8.30;2.77;;;;;;;31.68;25.15;99734.69;5090981;28;20250;-66
2023/09/11 09:38:26;;;;;;;13.47;2.70;;;;;;;31.72;24.56;99752.16;5090885;28;20199;-64
2023/09/11 09:40:54;;;;;;;7.93;2.30;;;;;;;31.35;25.25;99752.09;5089019;28;20226;-67
2023/09/11 09:43:21;;;;;;;3.60;2.03;;;;;;;31.09;24.87;99740.31;5090684;28;20194;-64
2023/09/11 09:45:49;;;;;;;2.77;2.10;;;;;;;31.01;25.72;99741.13;5090114;28;20195;-61
2023/09/11 09:48:18;;;;;;;2.03;1.90;;;;;;;30.97;25.12;99738.22;5090399;28;20215;-61
2023/09/11 09:50:53;;;;;;;7.83;2.20;;;;;;;31.06;25.68;99739.00;5088504;28;20625;-61
2023/09/11 09:53:25;;;;;;;4.13;2.20;;;;;;;31.20;25.77;99731.41;5090136;28;20252;-62
2023/09/11 09:55:52;;;;;;;5.43;1.90;;;;;;;30.81;25.71;99728.03;5089027;28;20203;-62
2023/09/11 09:58:20;;;;;;;7.33;2.27;;;;;;;30.97;25.60;99727.25;5090804;28;20252;-62
2023/09/11 10:00:49;;;;;;;4.47;2.17;;;;;;;31.17;25.53;99723.00;5090320;28;20939;-63
2023/09/11 10:03:15;;;;;;;2.33;1.90;;;;;;;31.39;25.34;99726.38;5088779;28;20206;-63
2023/09/11 10:05:42;;;;;;;3.43;2.03;;;;;;;31.64;24.75;99717.25;5083862;28;20272;-62
2023/09/11 10:08:09;;;;;;;2.50;2.00;;;;;;;31.66;24.72;99709.50;5082091;28;20280;-62
2023/09/11 10:10:36;;;;;;;3.43;2.20;;;;;;;31.82;24.68;99707.88;5089551;28;20337;-62
2023/09/11 10:13:06;;;;;;;3.20;1.80;;;;;;;31.90;24.51;99707.03;5089712;28;20199;-61
2023/09/11 10:15:34;;;;;;;4.67;1.93;;;;;;;32.05;24.92;99706.44;5087950;28;20195;-61
2023/09/11 10:18:04;;;;;;;3.77;1.80;;;;;;;31.95;25.22;99701.31;5070280;28;20196;-65
2023/09/11 10:20:32;;;;;;;2.80;2.00;;;;;;;32.10;24.78;99703.47;5089898;28;20643;-66
2023/09/11 10:23:00;;;;;;;2.27;2.10;;;;;;;32.00;24.93;99701.13;5077491;28;20666;-65
2023/09/11 10:25:29;;;;;;;2.20;2.00;;;;;;;32.05;24.22;99700.16;5068996;28;20199;-68
2023/09/11 10:27:58;;;;;;;2.30;2.10;;;;;;;32.14;24.31;99692.66;5068377;28;20208;-65
2023/09/11 10:30:30;;;;;;;4.40;2.00;;;;;;;31.98;23.80;99692.44;5067994;28;20187;-64
2023/09/11 10:33:00;;;;;;;3.13;2.03;;;;;;;31.64;23.84;99683.50;5069755;28;20714;-62
2023/09/11 10:35:31;;;;;;;3.40;1.97;;;;;;;31.40;24.27;99677.78;5085432;28;20187;-63
2023/09/11 10:37:59;;;;;;;4.90;2.13;;;;;;;31.56;24.58;99674.16;5069758;28;20286;-63
2023/09/11 10:40:30;;;;;;;4.67;2.50;;;;;;;31.76;25.05;99683.63;5080188;28;20281;-63
2023/09/11 10:42:57;;;;;;;3.88;2.20;;;;;;;31.42;24.20;99678.25;5070989;28;20433;-63
2023/09/11 10:45:27;;;;;;;4.00;2.27;;;;;;;30.91;25.25;99681.88;5072479;28;20241;-64
2023/09/11 10:47:54;;;;;;;7.53;2.60;;;;;;;30.76;24.78;99674.16;5074643;28;20219;-62
2023/09/11 10:50:24;;;;;;;4.10;2.40;;;;;;;30.77;25.33;99675.78;5071435;28;20253;-62
2023/09/11 10:52:56;;;;;;;9.63;2.63;;;;;;;30.70;25.37;99675.44;5069310;28;20271;-62
2023/09/11 10:55:24;;;;;;;3.20;2.20;;;;;;;30.64;25.89;99675.91;5070991;28;20192;-62
2023/09/11 10:57:52;;;;;;;2.90;2.50;;;;;;;30.18;26.10;99676.53;5085718;28;20643;-62
2023/09/11 11:00:21;;;;;;;7.10;2.27;;;;;;;30.43;26.71;99675.75;5084269;28;20270;-63
2023/09/11 11:02:48;;;;;;;2.17;2.07;;;;;;;30.49;25.99;99671.69;5090095;28;20191;-63
2023/09/11 11:05:15;;;;;;;2.30;2.20;;;;;;;30.59;25.25;99676.06;5079301;28;20662;-61
2023/09/11 11:07:42;;;;;;;5.10;2.37;;;;;;;30.74;25.49;99670.91;5077526;28;20305;-63
2023/09/11 11:10:14;;;;;;;8.10;2.57;;;;;;;30.45;25.12;99667.19;5083878;28;20191;-62
2023/09/11 11:12:42;;;;;;;2.80;2.10;;;;;;;30.53;25.99;99664.44;5080896;28;20664;-61
2023/09/11 11:15:22;;;;;;;5.80;2.60;;;;;;;30.65;26.37;99658.31;5075214;28;20195;-62
2023/09/11 11:18:08;;;;;;;5.80;2.23;;;;;;;30.80;25.56;99650.44;5073169;28;20252;-62
2023/09/11 11:20:35;;;;;;;3.47;2.30;;;;;;;30.72;25.03;99648.50;5076834;28;20278;-63
2023/09/11 11:23:09;;;;;;;4.87;2.50;;;;;;;30.77;26.46;99640.09;5090103;28;20191;-61
2023/09/11 11:25:41;;;;;;;4.57;2.77;;;;;;;30.62;24.69;99651.53;5090504;28;20252;-61
2023/09/11 11:28:14;;;;;;;3.70;2.30;;;;;;;30.67;24.87;99643.16;5091014;28;20235;-64
2023/09/11 11:30:42;;;;;;;4.23;2.40;;;;;;;30.74;25.55;99632.50;5069223;28;20188;-61
2023/09/11 11:33:14;;;;;;;2.77;2.23;;;;;;;30.60;25.12;99629.13;5070161;28;20349;-60
2023/09/11 11:35:44;;;;;;;3.10;2.30;;;;;;;30.55;25.42;99645.75;5073361;28;20196;-59